ADDS METAR Data INFO
IDs: Format: Raw Decoded Include TAF

Data at: 1837 UTC 16 Dec 2017

KAZO 161753Z 22005KT 10SM SCT085 03/M03 A2992 RMK AO2 SLP143 T00281033 10033 20000 50002
KAZO 161653Z 21007KT 10SM OVC085 03/M03 A2993 RMK AO2 SLP144 T00281028
KAZO 161553Z 21006KT 10SM OVC085 02/M03 A2993 RMK AO2 SLP146 T00171033
KAZO 161453Z 21005KT 10SM OVC080 01/M03 A2992 RMK AO2 SLP141 T00111033 53018
KAZO 161353Z 18005KT 10SM OVC080 01/M03 A2989 RMK AO2 SLP133 T00061033
KAZO 161253Z 19007KT 10SM BKN065 BKN090 01/M04 A2988 RMK AO2 SLP130 T00061039
KAZO 161153Z 21009KT 10SM BKN060 BKN090 OVC100 01/M04 A2986 RMK AO2 SLP123 60000 70001 T00111044 10011 21017 55003
KAZO 161053Z AUTO 21007KT 10SM BKN070 OVC090 01/M04 A2985 RMK AO2 SNE09 SLP120 P0000 T00111044
KAZO 160953Z AUTO 21009KT 8SM -SN BKN060 OVC075 01/M04 A2986 RMK AO2 SNB53 SLP121 P0000 T00111044
KAZO 160853Z AUTO 22006KT 10SM OVC046 01/M05 A2987 RMK AO2 SLP126 60000 T00061050 58001
KAZO 160753Z AUTO 22008KT 10SM OVC043 M01/M05 A2988 RMK AO2 SLP130 T10061050
KAZO 160653Z AUTO 21010KT 10SM OVC050 M01/M04 A2987 RMK AO2 SNE06 SLP128 P0000 T10111044
KAZO 160553Z AUTO 22008KT 4SM -SN BR FEW023 SCT034 OVC042 M02/M03 A2987 RMK AO2 SNE19B26 SLP127 P0000 60001 T10171033 11011 21028 57007
KAZO 160544Z AUTO 22008KT 2SM -SN BR FEW024 BKN034 OVC042 M02/M03 A2988 RMK AO2 SNE19B26 P0000 T10171033
KAZO 160520Z AUTO 21010KT 9SM FEW011 BKN030 OVC038 M02/M03 A2988 RMK AO2 SNE19 P0000 T10171033
KAZO 160513Z AUTO 21009KT 5SM -SN BR FEW011 BKN020 OVC039 M02/M03 A2988 RMK AO2 P0000 T10171033
KAZO 160459Z AUTO 21010KT 3SM -SN BR BKN011 OVC020 M02/M03 A2988 RMK AO2 P0000 T10171033
KAZO 160453Z AUTO 21010KT 2 1/2SM -SN BR FEW011 OVC020 M02/M03 A2988 RMK AO2 SLP131 P0000 T10171033 410111072
KAZO 160400Z AUTO 22010KT 1SM R35/P6000FT -SN BR OVC020 M02/M03 A2989 RMK AO2 P0000 T10171033
KAZO 160353Z AUTO 22010KT 2SM -SN BR OVC022 M02/M03 A2989 RMK AO2 SLP135 P0000 T10171033
KAZO 160253Z 23009KT 2SM -SN OVC021 M02/M04 A2989 RMK AO2 SLP135 P0000 60001 T10171044 51004
KAZO 160251Z 22010KT 2SM -SN OVC023 M02/M05 A2989 RMK AO2 P0000
KAZO 160153Z 21009KT 4SM -SN BKN025 OVC030 M02/M05 A2989 RMK AO2 SNB0056 SLP132 P0001 T10171050
KAZO 160053Z 19009KT 10SM SCT025 OVC040 M02/M06 A2988 RMK AO2 SNB2358E39 SLP130 P0000 T10221061
KAZO 152353Z 21005KT 10SM SCT027 BKN040 OVC055 M03/M07 A2987 RMK AO2 SNE41 SLP130 P0000 60000 T10281067 11022 21033 51007
KAZO 152253Z 26006KT 10SM -SN BKN027 OVC033 M02/M08 A2987 RMK AO2 SNB51 SLP129 P0000 T10221078
KAZO 152236Z 26008KT 10SM OVC029 M02/M08 A2987 RMK AO2 T10221083
KAZO 152153Z 28009KT 10SM OVC041 M02/M09 A2986 RMK AO2 SLP124 T10221094
KAZO 152053Z 28012G18KT 10SM OVC039 M02/M09 A2985 RMK AO2 SLP122 60000 T10221094 53006
KAZO 151953Z 27011G18KT 10SM OVC042 M03/M09 A2984 RMK AO2 SNB01E11 SLP117 P0000 T10281089
KAZO 151853Z COR 28012G20KT 7SM -SN BKN039 OVC046 M03/M09 A2984 RMK AO2 SNB32E46 SLP116 P0000 T10281089
KAZO 151753Z 26014G24KT 8SM FEW027 OVC043 M03/M08 A2983 RMK AO2 PK WND 29026/1729 SNB26E40 SLP115 P0000 60000 T10331083 11033 21061 53000
KAZO 151703Z 27015G23KT 8SM OVC035 M03/M08 A2983 RMK AO2 T10331083
KAZO 151653Z COR 27016G26KT 8SM HZ FEW017 OVC033 M03/M08 A2983 RMK AO2 PK WND 26026/1646 SNE39 SLP114 P0000 T10331078
KAZO 151553Z 22011KT 2SM -SN OVC020 M04/M08 A2983 RMK AO2 SLP116 P0000 T10441078
KAZO 151453Z 21010KT 2SM -SN OVC020 M06/M08 A2984 RMK AO2 SLP119 P0000 60000 T10561083 56012
KAZO 151417Z 22011KT 2 1/2SM -SN OVC019 M06/M09 A2984 RMK AO2 P0000 T10561089
KAZO 151353Z 22014KT 4SM -SN OVC019 M06/M10 A2985 RMK AO2 SNB34 SLP121 P0000 T10561100
KAZO 151253Z 22013KT 10SM OVC020 M06/M11 A2986 RMK AO2 SLP125 T10561106
KAZO 151153Z 21010KT 10SM OVC026 M06/M11 A2988 RMK AO2 SLP131 T10611111 11061 21072 56021
KAZO 151126Z 21011KT 10SM BKN028 OVC090 M06/M11 A2988 RMK AO2 T10611111
KAZO 151053Z AUTO 21010KT 10SM OVC090 M07/M11 A2989 RMK AO2 SLP137 T10671111
KAZO 150953Z AUTO 21010KT 10SM SCT055 OVC100 M07/M11 A2991 RMK AO2 SLP143 T10671106
KAZO 150853Z AUTO 21010KT 10SM OVC033 M07/M11 A2994 RMK AO2 SLP153 T10671106 56016
KAZO 150753Z AUTO 19010KT 10SM BKN036 OVC100 M07/M10 A2995 RMK AO2 SLP156 T10671100
KAZO 150653Z AUTO 20009KT 10SM OVC037 M07/M10 A2996 RMK AO2 SLP162 T10671100